createdAt,value
2023-11-24T00:02:51.049Z,15.65
2023-11-24T00:05:53.004Z,15.10
2023-11-24T00:08:55.061Z,14.80
2023-11-24T00:11:59.793Z,14.73
2023-11-24T00:15:05.320Z,15.00
2023-11-24T00:18:07.513Z,13.77
2023-11-24T00:21:10.589Z,15.05
2023-11-24T00:24:12.534Z,13.60
2023-11-24T00:27:14.512Z,13.85
2023-11-24T00:30:16.361Z,13.70
2023-11-24T00:33:21.680Z,13.50
2023-11-24T00:36:24.400Z,14.43
2023-11-24T00:39:26.345Z,12.82
2023-11-24T00:42:30.701Z,13.13
2023-11-24T00:45:32.612Z,13.13
2023-11-24T00:48:35.076Z,12.15
2023-11-24T00:51:37.335Z,12.95
2023-11-24T00:54:39.326Z,13.05
2023-11-24T00:57:41.313Z,12.30
2023-11-24T01:00:43.788Z,12.40
2023-11-24T01:03:45.774Z,11.77
2023-11-24T01:06:47.690Z,12.40
2023-11-24T01:09:51.382Z,11.45
2023-11-24T01:12:53.373Z,12.88
2023-11-24T01:15:55.391Z,12.75
2023-11-24T01:18:59.274Z,12.10
2023-11-24T01:22:01.243Z,12.15
2023-11-24T01:25:03.558Z,12.60
2023-11-24T01:28:05.402Z,11.30
2023-11-24T01:31:07.937Z,13.27
2023-11-24T01:34:10.557Z,12.38
2023-11-24T01:37:12.642Z,11.80
2023-11-24T01:40:19.046Z,12.18
2023-11-24T01:43:20.970Z,12.20
2023-11-24T01:46:22.994Z,12.85
2023-11-24T01:49:26.288Z,11.70
2023-11-24T01:52:28.684Z,11.90
2023-11-24T01:55:30.942Z,12.30
2023-11-24T01:58:33.017Z,12.05
2023-11-24T02:01:35.602Z,12.60
2023-11-24T02:04:37.690Z,12.15
2023-11-24T02:07:41.620Z,12.30
2023-11-24T02:10:44.106Z,11.73
2023-11-24T02:13:52.418Z,12.35
2023-11-24T02:19:58.486Z,10.93
2023-11-24T02:23:01.691Z,11.80
2023-11-24T02:26:04.241Z,12.98
2023-11-24T02:29:06.197Z,12.95
2023-11-24T02:32:09.483Z,13.00
2023-11-24T02:35:11.526Z,12.65
2023-11-24T02:38:13.572Z,11.77
2023-11-24T02:41:16.672Z,12.40
2023-11-24T02:44:18.729Z,11.75
2023-11-24T02:47:22.207Z,12.63
2023-11-24T02:50:24.166Z,12.93
2023-11-24T02:53:26.095Z,12.60
2023-11-24T02:56:28.264Z,12.50
2023-11-24T02:59:30.713Z,12.40
2023-11-24T03:02:33.183Z,12.27
2023-11-24T03:05:35.801Z,12.90
2023-11-24T03:08:37.707Z,12.73
2023-11-24T03:11:39.708Z,12.95
2023-11-24T03:14:44.196Z,12.52
2023-11-24T03:17:46.200Z,13.35
2023-11-24T03:20:49.315Z,13.02
2023-11-24T03:23:51.366Z,12.73
2023-11-24T03:26:53.308Z,13.05
2023-11-24T03:29:56.043Z,13.30
2023-11-24T03:32:57.920Z,12.82
2023-11-24T03:36:00.571Z,13.05
2023-11-24T03:39:02.862Z,13.95
2023-11-24T03:42:04.986Z,13.25
2023-11-24T03:45:07.730Z,12.75
2023-11-24T03:48:09.884Z,15.38
2023-11-24T03:51:11.993Z,14.35
2023-11-24T03:54:13.895Z,13.32
2023-11-24T03:57:15.986Z,13.30
2023-11-24T04:00:18.301Z,12.77
2023-11-24T04:03:20.270Z,12.65
2023-11-24T04:06:22.409Z,12.88
2023-11-24T04:09:26.467Z,13.00
2023-11-24T04:12:29.103Z,12.25
2023-11-24T04:15:31.023Z,12.88
2023-11-24T04:18:33.948Z,12.70
2023-11-24T04:21:37.353Z,12.60
2023-11-24T04:24:40.289Z,13.50
2023-11-24T04:27:42.299Z,13.63
2023-11-24T04:30:44.514Z,15.60
2023-11-24T04:33:46.533Z,13.90
2023-11-24T04:36:49.133Z,13.60
2023-11-24T04:39:51.209Z,14.27
2023-11-24T04:42:56.348Z,14.02
2023-11-24T04:45:58.445Z,13.90
2023-11-24T04:49:05.063Z,14.32
2023-11-24T04:52:07.238Z,14.43
2023-11-24T04:55:09.449Z,13.80
2023-11-24T04:58:15.310Z,15.98
2023-11-24T05:01:19.452Z,15.93
2023-11-24T05:04:22.246Z,15.15
2023-11-24T05:07:25.042Z,15.43
2023-11-24T05:10:26.967Z,14.77
2023-11-24T05:13:28.954Z,14.82
2023-11-24T05:16:31.192Z,15.57
2023-11-24T05:19:33.464Z,15.82
2023-11-24T05:22:35.433Z,17.00
2023-11-24T05:25:37.344Z,17.88
2023-11-24T05:28:39.363Z,18.88
2023-11-24T05:31:41.627Z,18.27
2023-11-24T05:34:43.581Z,16.38
2023-11-24T05:37:45.705Z,16.75
2023-11-24T05:40:47.774Z,16.83
2023-11-24T05:43:49.868Z,16.80
2023-11-24T05:46:51.902Z,16.58
2023-11-24T05:49:53.907Z,16.23
2023-11-24T05:52:55.746Z,15.90
2023-11-24T05:55:58.361Z,15.65
2023-11-24T05:59:00.250Z,17.00
2023-11-24T06:02:04.696Z,17.13
2023-11-24T06:05:07.202Z,17.08
2023-11-24T06:08:09.301Z,16.92
2023-11-24T06:11:11.173Z,18.00
2023-11-24T06:14:14.233Z,18.63
2023-11-24T06:17:16.603Z,17.10
2023-11-24T06:20:21.407Z,18.30
2023-11-24T06:23:23.937Z,17.10
2023-11-24T06:26:27.935Z,18.73
2023-11-24T06:29:29.855Z,18.33
2023-11-24T06:32:32.276Z,18.98
2023-11-24T06:35:34.175Z,19.85
2023-11-24T06:38:36.151Z,19.58
2023-11-24T06:41:38.906Z,20.10
2023-11-24T06:44:40.742Z,20.15
2023-11-24T06:47:43.195Z,18.35
2023-11-24T06:50:45.109Z,18.90
2023-11-24T06:53:47.757Z,18.70
2023-11-24T06:56:49.672Z,17.80
2023-11-24T06:59:51.488Z,17.42
2023-11-24T07:02:53.458Z,19.15
2023-11-24T07:05:55.368Z,18.77
2023-11-24T07:08:57.632Z,18.35
2023-11-24T07:11:59.498Z,18.60
2023-11-24T07:15:04.717Z,18.80
2023-11-24T07:18:06.736Z,18.55
2023-11-24T07:21:09.085Z,18.52
2023-11-24T07:24:11.080Z,19.10
2023-11-24T07:27:13.000Z,19.17
2023-11-24T07:30:15.439Z,20.67
2023-11-24T07:33:17.733Z,18.65
2023-11-24T07:36:22.923Z,18.65
2023-11-24T07:39:25.886Z,18.70
2023-11-24T07:42:27.765Z,19.80
2023-11-24T07:45:29.638Z,18.90
2023-11-24T07:48:31.577Z,17.50
2023-11-24T07:51:33.849Z,19.77
2023-11-24T07:54:35.891Z,19.98
2023-11-24T07:57:38.018Z,20.10
2023-11-24T08:00:41.491Z,18.83
2023-11-24T08:03:43.643Z,19.65
2023-11-24T08:06:46.637Z,18.63
2023-11-24T08:09:48.992Z,17.85
2023-11-24T08:12:50.838Z,19.92
2023-11-24T08:15:53.968Z,18.73
2023-11-24T08:18:56.607Z,18.85
2023-11-24T08:21:59.553Z,19.05
2023-11-24T08:25:01.590Z,19.42
2023-11-24T08:28:05.986Z,21.02
2023-11-24T08:31:08.035Z,21.73
2023-11-24T08:34:10.156Z,21.60
2023-11-24T08:37:12.239Z,20.08
2023-11-24T08:40:16.803Z,22.08
2023-11-24T08:43:19.518Z,23.33
2023-11-24T08:46:21.543Z,23.27
2023-11-24T08:49:23.570Z,24.42
2023-11-24T08:52:25.439Z,23.15
2023-11-24T08:55:27.289Z,23.13
2023-11-24T08:58:29.133Z,22.05
2023-11-24T09:01:31.239Z,22.75
2023-11-24T09:04:33.600Z,20.30
2023-11-24T09:07:38.186Z,20.50
2023-11-24T09:10:40.215Z,20.30
2023-11-24T09:13:42.073Z,19.52
2023-11-24T09:16:44.095Z,20.67
2023-11-24T09:19:46.017Z,21.30
2023-11-24T09:22:47.930Z,20.77
2023-11-24T09:25:52.622Z,21.52
2023-11-24T09:28:54.682Z,21.63
2023-11-24T09:31:59.530Z,23.05
2023-11-24T09:35:03.450Z,22.50
2023-11-24T09:38:06.041Z,20.85
2023-11-24T09:41:10.383Z,22.10
2023-11-24T09:44:16.366Z,23.70
2023-11-24T09:47:20.497Z,24.88
2023-11-24T09:50:28.917Z,21.80
2023-11-24T09:53:34.947Z,22.35
2023-11-24T09:56:37.248Z,23.27
2023-11-24T09:59:41.939Z,23.13
2023-11-24T10:02:45.282Z,23.63
2023-11-24T10:05:47.172Z,22.42
2023-11-24T10:08:49.117Z,22.42
2023-11-24T10:11:51.601Z,20.98
2023-11-24T10:14:55.664Z,21.88
2023-11-24T10:17:58.478Z,23.40
2023-11-24T10:21:01.313Z,20.02
2023-11-24T10:24:03.292Z,21.27
2023-11-24T10:27:22.529Z,20.58
2023-11-24T10:30:24.431Z,19.08
2023-11-24T10:33:35.146Z,20.25
2023-11-24T10:36:38.572Z,18.42
2023-11-24T10:39:45.803Z,19.58
2023-11-24T10:42:50.091Z,20.23
2023-11-24T10:45:52.682Z,23.38
2023-11-24T10:49:07.688Z,22.30
2023-11-24T10:52:28.743Z,23.60
2023-11-24T10:55:32.747Z,23.40
2023-11-24T10:58:35.106Z,24.27
2023-11-24T11:01:37.255Z,21.92
2023-11-24T11:04:43.759Z,23.10
2023-11-24T11:08:07.389Z,22.27
2023-11-24T11:11:37.532Z,23.98
2023-11-24T11:14:40.022Z,23.40
2023-11-24T11:17:42.862Z,21.05
2023-11-24T11:20:46.404Z,19.10
2023-11-24T11:23:57.993Z,19.25
2023-11-24T11:27:00.116Z,19.33
2023-11-24T11:30:16.072Z,20.10
2023-11-24T11:33:21.767Z,18.88
2023-11-24T11:36:27.071Z,18.48
2023-11-24T11:39:37.535Z,17.75
2023-11-24T11:42:53.756Z,18.88
2023-11-24T11:45:59.259Z,18.17
2023-11-24T11:49:10.128Z,18.75
2023-11-24T11:52:15.348Z,18.77
2023-11-24T11:55:24.320Z,17.67
2023-11-24T11:58:29.432Z,17.85
2023-11-24T12:01:33.928Z,19.13
2023-11-24T12:04:37.225Z,17.65
2023-11-24T12:07:41.114Z,19.80
2023-11-24T12:10:43.804Z,19.77
2023-11-24T12:13:45.624Z,18.30
2023-11-24T12:16:47.681Z,18.75
2023-11-24T12:19:50.205Z,19.25
2023-11-24T12:22:53.947Z,19.45
2023-11-24T12:25:56.752Z,20.88
2023-11-24T12:28:59.610Z,19.73
2023-11-24T12:32:05.115Z,22.08
2023-11-24T12:35:09.567Z,19.85
2023-11-24T12:38:12.434Z,22.10
2023-11-24T12:41:15.256Z,20.92
2023-11-24T12:44:17.888Z,18.73
2023-11-24T12:47:41.291Z,19.08
2023-11-24T12:50:47.109Z,19.05
2023-11-24T12:53:49.356Z,18.20
2023-11-24T12:56:51.217Z,17.45
2023-11-24T12:59:53.935Z,18.20
2023-11-24T13:02:57.105Z,17.20
2023-11-24T13:05:59.010Z,17.20
2023-11-24T13:09:00.901Z,17.38
2023-11-24T13:12:12.965Z,18.23
2023-11-24T13:15:23.128Z,17.63
2023-11-24T13:18:25.251Z,17.33
2023-11-24T13:21:27.314Z,17.25
2023-11-24T13:24:32.790Z,16.63
2023-11-24T13:27:34.935Z,17.90
2023-11-24T13:30:36.859Z,18.02
2023-11-24T13:33:38.718Z,17.30
2023-11-24T13:36:42.460Z,18.02
2023-11-24T13:39:46.795Z,16.23
2023-11-24T13:42:48.985Z,17.40
2023-11-24T13:45:52.803Z,17.27
2023-11-24T13:48:54.852Z,17.50
2023-11-24T13:51:56.957Z,17.52
2023-11-24T13:55:01.643Z,17.25
2023-11-24T13:58:04.235Z,16.50
2023-11-24T14:01:07.243Z,18.25
2023-11-24T14:04:12.622Z,18.27
2023-11-24T14:07:15.807Z,19.48
2023-11-24T14:10:20.241Z,18.92
2023-11-24T14:13:22.697Z,17.23
2023-11-24T14:16:25.009Z,17.08
2023-11-24T14:19:27.165Z,16.65
2023-11-24T14:22:29.044Z,17.08
2023-11-24T14:25:31.991Z,16.83
2023-11-24T14:28:33.880Z,18.75
2023-11-24T14:31:35.744Z,18.13
2023-11-24T14:34:38.163Z,19.30
2023-11-24T14:37:41.579Z,17.95
2023-11-24T14:40:43.565Z,17.35
2023-11-24T14:43:45.559Z,18.45
2023-11-24T14:46:47.406Z,17.30
2023-11-24T14:49:49.363Z,17.83
2023-11-24T14:52:51.197Z,16.08
2023-11-24T14:55:53.050Z,17.88
2023-11-24T14:58:54.877Z,19.85
2023-11-24T15:02:01.176Z,19.77
2023-11-24T15:05:03.291Z,19.90
2023-11-24T15:08:11.603Z,20.77
2023-11-24T15:11:16.730Z,19.80
2023-11-24T15:14:28.539Z,19.08
2023-11-24T15:17:30.468Z,20.20
2023-11-24T15:20:33.911Z,18.35
2023-11-24T15:23:35.865Z,18.05
2023-11-24T15:26:38.011Z,18.67
2023-11-24T15:29:40.887Z,18.48
2023-11-24T15:32:43.452Z,19.08
2023-11-24T15:35:50.041Z,20.58
2023-11-24T15:38:51.931Z,19.58
2023-11-24T15:41:53.717Z,18.42
2023-11-24T15:44:58.181Z,17.98
2023-11-24T15:48:07.604Z,18.00
2023-11-24T15:51:10.722Z,19.60
2023-11-24T15:54:13.798Z,19.23
2023-11-24T15:57:15.690Z,17.67
2023-11-24T16:00:27.258Z,17.33
2023-11-24T16:03:30.243Z,19.13
2023-11-24T16:06:32.824Z,17.75
2023-11-24T16:09:36.406Z,18.33
2023-11-24T16:12:38.386Z,20.35
2023-11-24T16:15:44.042Z,21.20
2023-11-24T16:18:46.211Z,19.30
2023-11-24T16:21:48.300Z,20.58
2023-11-24T16:24:52.764Z,20.45
2023-11-24T16:27:54.731Z,20.52
2023-11-24T16:30:56.557Z,18.73
2023-11-24T16:33:58.390Z,17.77
2023-11-24T16:37:00.495Z,16.33
2023-11-24T16:40:04.014Z,15.82
2023-11-24T16:43:06.674Z,15.95
2023-11-24T16:46:08.862Z,16.73
2023-11-24T16:49:12.191Z,16.73
2023-11-24T16:52:14.342Z,16.58
2023-11-24T16:55:17.320Z,17.40
2023-11-24T16:58:20.200Z,17.23
2023-11-24T17:01:22.468Z,17.63
2023-11-24T17:04:25.355Z,15.10
2023-11-24T17:07:29.349Z,16.00
2023-11-24T17:10:32.014Z,15.55
2023-11-24T17:13:36.877Z,14.65
2023-11-24T17:16:38.992Z,15.43
2023-11-24T17:19:41.090Z,15.55
2023-11-24T17:22:43.074Z,15.95
2023-11-24T17:25:46.649Z,16.92
2023-11-24T17:28:54.055Z,16.58
2023-11-24T17:31:56.656Z,16.42
2023-11-24T17:34:59.113Z,18.42
2023-11-24T17:38:01.057Z,20.33
2023-11-24T17:41:03.246Z,19.05
2023-11-24T17:44:15.912Z,16.95
2023-11-24T17:47:17.889Z,16.48
2023-11-24T17:50:20.930Z,16.75
2023-11-24T17:53:24.192Z,14.63
2023-11-24T17:56:26.403Z,16.05
2023-11-24T17:59:28.402Z,13.02
2023-11-24T18:02:31.243Z,12.02
2023-11-24T18:05:34.267Z,9.27
2023-11-24T18:08:37.119Z,7.75
2023-11-24T18:11:39.682Z,7.15
2023-11-24T18:14:41.701Z,7.78
2023-11-24T18:17:43.793Z,6.82
2023-11-24T18:20:46.958Z,5.47
2023-11-24T18:23:49.299Z,4.70
2023-11-24T18:26:52.449Z,3.80
2023-11-24T18:29:54.414Z,4.05
2023-11-24T18:32:56.350Z,4.32
2023-11-24T18:35:58.441Z,4.28
2023-11-24T18:39:00.495Z,3.58
2023-11-24T18:42:03.675Z,2.90
2023-11-24T18:45:07.918Z,3.10
2023-11-24T18:48:10.090Z,3.42
2023-11-24T18:51:12.983Z,3.53
2023-11-24T18:54:15.165Z,3.65
2023-11-24T18:57:17.632Z,3.75
2023-11-24T19:00:20.437Z,4.28
2023-11-24T19:03:22.907Z,4.50
2023-11-24T19:06:25.286Z,5.30
2023-11-24T19:09:27.251Z,6.50
2023-11-24T19:12:29.151Z,6.35
2023-11-24T19:15:31.085Z,6.88
2023-11-24T19:18:33.133Z,7.88
2023-11-24T19:21:35.420Z,8.50
2023-11-24T19:24:39.646Z,8.75
2023-11-24T19:27:41.667Z,9.32
2023-11-24T19:30:44.651Z,9.02
2023-11-24T19:33:46.621Z,8.68
2023-11-24T19:36:48.623Z,8.85
2023-11-24T19:39:51.719Z,8.15
2023-11-24T19:42:53.694Z,8.05
2023-11-24T19:45:57.000Z,10.50
2023-11-24T19:48:58.944Z,13.55
2023-11-24T19:52:01.085Z,13.60
2023-11-24T19:55:03.801Z,13.27
2023-11-24T19:58:06.353Z,13.48
2023-11-24T20:01:08.374Z,12.70
2023-11-24T20:04:10.437Z,10.73
2023-11-24T20:07:12.836Z,10.52
2023-11-24T20:10:14.986Z,10.10
2023-11-24T20:13:17.056Z,8.63
2023-11-24T20:16:19.496Z,8.80
2023-11-24T20:19:21.551Z,8.23
2023-11-24T20:22:23.507Z,8.30
2023-11-24T20:25:25.579Z,8.38
2023-11-24T20:28:28.882Z,8.27
2023-11-24T20:31:30.962Z,8.10
2023-11-24T20:34:33.354Z,7.85
2023-11-24T20:37:35.451Z,8.10
2023-11-24T20:40:37.472Z,7.50
2023-11-24T20:43:40.467Z,7.47
2023-11-24T20:46:45.086Z,10.75
2023-11-24T20:49:47.160Z,11.48
2023-11-24T20:52:49.788Z,12.82
2023-11-24T20:55:53.590Z,12.73
2023-11-24T20:58:55.641Z,11.50
2023-11-24T21:01:58.546Z,11.38
2023-11-24T21:05:00.625Z,9.98
2023-11-24T21:08:02.660Z,9.57
2023-11-24T21:11:04.657Z,9.20
2023-11-24T21:14:06.655Z,9.60
2023-11-24T21:17:08.625Z,9.82
2023-11-24T21:20:11.421Z,8.65
2023-11-24T21:23:13.500Z,8.43
2023-11-24T21:26:19.395Z,7.65
2023-11-24T21:29:21.372Z,7.55
2023-11-24T21:32:23.429Z,7.25
2023-11-24T21:35:25.617Z,7.15
2023-11-24T21:38:27.580Z,7.90
2023-11-24T21:41:29.641Z,8.00
2023-11-24T21:44:31.574Z,7.05
2023-11-24T21:47:34.633Z,7.55
2023-11-24T21:50:36.654Z,7.82
2023-11-24T21:53:40.933Z,7.85
2023-11-24T21:56:42.922Z,7.63
2023-11-24T21:59:44.942Z,7.88
2023-11-24T22:02:47.588Z,7.45
2023-11-24T22:05:49.738Z,9.25
2023-11-24T22:08:55.415Z,9.23
2023-11-24T22:11:57.505Z,9.10
2023-11-24T22:15:02.412Z,10.13
2023-11-24T22:18:05.069Z,10.60
2023-11-24T22:21:08.760Z,12.50
2023-11-24T22:24:11.154Z,13.35
2023-11-24T22:27:13.099Z,14.05
2023-11-24T22:30:15.403Z,13.50
2023-11-24T22:33:17.313Z,12.65
2023-11-24T22:36:20.910Z,11.77
2023-11-24T22:39:23.417Z,12.88
2023-11-24T22:42:25.928Z,11.80
2023-11-24T22:45:27.991Z,11.30
2023-11-24T22:48:30.014Z,13.07
2023-11-24T22:51:32.101Z,12.82
2023-11-24T22:54:37.001Z,11.25
2023-11-24T22:57:41.011Z,10.63
2023-11-24T23:00:47.159Z,10.45
2023-11-24T23:03:54.774Z,11.35
2023-11-24T23:06:57.307Z,13.13
2023-11-24T23:09:59.651Z,13.35
2023-11-24T23:13:03.067Z,12.75
2023-11-24T23:16:05.745Z,12.27
2023-11-24T23:19:07.796Z,13.80
2023-11-24T23:22:10.121Z,12.52
2023-11-24T23:25:12.327Z,13.40
2023-11-24T23:28:14.423Z,13.77
2023-11-24T23:31:18.128Z,14.60
2023-11-24T23:34:22.292Z,13.15
2023-11-24T23:37:24.245Z,13.30
2023-11-24T23:40:26.415Z,12.85
2023-11-24T23:43:32.628Z,11.65
2023-11-24T23:46:34.724Z,11.32
2023-11-24T23:49:36.815Z,10.10
2023-11-24T23:52:38.985Z,10.10
2023-11-24T23:55:40.954Z,9.88
2023-11-24T23:58:43.143Z,10.18
